Hauptseite
METAR-TAF:

METAR-TAF

Flughäfen :

Fliegerhorst Büchel

Büchel, Deutschland

Breite: 50-10N, Länge: 007-04E, Höhe: 478 m

Beobachtung

Neuester Wetterbericht von vor 58 Minuten, um 18:20 UTC
Wind 6 kt aus Südwest
Temperatur 21°C
Luftfeuchtigkeit 60%
Luftdruck 1020 hPa
Sichtweite: 8000 m

METAR: ETSB 191820Z AUTO 23006KT 8000 // ////// 21/13 Q1020 ///

Zeit: 21:18 (19:18 UTC)

Prognose

Neuester Wetterbericht von vor 3 Stunden und 38 Minuten, um 15:40 UTC
Gültige Prognose vom 19 um 15 UTC bis 19 um 23 UTC
Wind 12 kt aus Südwest, Böen bis zu 22 kt
Sichtweite: 1540 m
Aufgelockert bewölkt in der Höhe von 4000 ft

TAF: ETSB 191540Z 1915/1923 23012G22KT 9999 NSW SCT040 CANCEL 1540 BY ETGL

Wetterbeobachtungen und Prognosen von mehr als 4000 Flughäfen (METAR und TAF Bericht).

Die verfügbaren Stationen werden durch gelbe und rote Markierungen auf der Karte dargestellt.

Führen Sie die Maus auf sie, um den Namen der Station zu sehen.

Darauf klicken, um die Beobachtung von Wetterbeobachtungen und Prognosen zu sehen.

Um die Karte zu ändern : klicken Sie auf den grünen Tasten mit einem schwarzen Kreuz Zum Vergrößern, auf den grünen Button mit einem Gedankenstrich zu verkleinern, oder auf die grünen Pfeile für benachbarte Karten.


METAR-TAF: